createdAt,value
2019-03-31T00:00:52.275Z,99.90
2019-03-31T00:03:22.265Z,99.90
2019-03-31T00:05:52.210Z,99.90
2019-03-31T00:08:22.190Z,99.90
2019-03-31T00:10:52.146Z,99.90
2019-03-31T00:13:22.140Z,99.90
2019-03-31T00:15:52.086Z,99.90
2019-03-31T00:18:22.070Z,99.90
2019-03-31T00:20:52.052Z,99.90
2019-03-31T00:23:22.009Z,99.90
2019-03-31T00:25:53.621Z,99.90
2019-03-31T00:28:23.577Z,99.90
2019-03-31T00:30:54.086Z,99.90
2019-03-31T00:33:24.036Z,99.90
2019-03-31T00:35:54.188Z,99.90
2019-03-31T00:38:24.135Z,99.90
2019-03-31T00:40:54.107Z,99.90
2019-03-31T00:43:24.072Z,99.90
2019-03-31T00:45:54.038Z,99.90
2019-03-31T00:48:24.001Z,99.90
2019-03-31T00:50:53.966Z,99.90
2019-03-31T00:53:23.924Z,99.90
2019-03-31T00:55:53.899Z,99.90
2019-03-31T00:58:23.861Z,99.90
2019-03-31T01:01:01.239Z,99.90
2019-03-31T01:03:34.731Z,99.90
2019-03-31T01:06:05.340Z,99.90
2019-03-31T01:08:35.692Z,99.90
2019-03-31T01:11:10.286Z,99.90
2019-03-31T01:13:40.838Z,99.90
2019-03-31T01:16:12.769Z,99.90
2019-03-31T01:18:43.289Z,99.90
2019-03-31T01:21:13.326Z,99.90
2019-03-31T01:23:43.346Z,99.90
2019-03-31T01:26:15.213Z,99.90
2019-03-31T01:28:45.223Z,99.90
2019-03-31T01:31:15.197Z,99.90
2019-03-31T01:33:45.147Z,99.90
2019-03-31T01:36:16.087Z,99.90
2019-03-31T01:38:46.049Z,99.90
2019-03-31T01:41:16.366Z,99.90
2019-03-31T01:43:46.319Z,99.90
2019-03-31T01:46:18.499Z,99.90
2019-03-31T01:48:48.452Z,99.90
2019-03-31T01:51:18.432Z,99.90
2019-03-31T01:53:48.382Z,99.90
2019-03-31T01:56:18.762Z,99.90
2019-03-31T01:58:48.711Z,99.90
2019-03-31T02:01:19.854Z,99.90
2019-03-31T02:03:49.803Z,99.90
2019-03-31T02:06:19.778Z,99.90
2019-03-31T02:08:49.724Z,99.90
2019-03-31T02:11:19.704Z,99.90
2019-03-31T02:13:49.665Z,99.90
2019-03-31T02:16:19.630Z,99.90
2019-03-31T02:18:49.578Z,99.90
2019-03-31T02:21:19.551Z,99.90
2019-03-31T02:23:49.512Z,99.90
2019-03-31T02:26:19.488Z,99.90
2019-03-31T02:28:49.439Z,99.90
2019-03-31T02:31:19.422Z,99.90
2019-03-31T02:33:49.379Z,99.90
2019-03-31T02:36:19.362Z,99.90
2019-03-31T02:38:49.317Z,99.90
2019-03-31T02:41:19.291Z,99.90
2019-03-31T02:43:49.239Z,99.90
2019-03-31T02:46:19.213Z,99.90
2019-03-31T02:48:49.179Z,99.90
2019-03-31T02:51:19.333Z,99.90
2019-03-31T02:53:49.286Z,99.90
2019-03-31T02:56:19.823Z,99.90
2019-03-31T02:58:51.810Z,99.90
2019-03-31T03:01:24.433Z,99.90
2019-03-31T03:03:55.728Z,99.90
2019-03-31T03:06:27.737Z,99.90
2019-03-31T03:08:59.135Z,99.90
2019-03-31T03:11:31.460Z,99.90
2019-03-31T03:14:03.862Z,99.90
2019-03-31T03:16:33.820Z,99.90
2019-03-31T03:19:04.430Z,99.90
2019-03-31T03:21:34.500Z,99.90
2019-03-31T03:24:04.526Z,99.90
2019-03-31T03:26:34.501Z,99.90
2019-03-31T03:29:04.446Z,99.90
2019-03-31T03:31:34.432Z,99.90
2019-03-31T03:34:04.397Z,99.90
2019-03-31T03:36:34.359Z,99.90
2019-03-31T03:39:06.731Z,99.90
2019-03-31T03:41:36.771Z,99.90
2019-03-31T03:44:06.722Z,99.90
2019-03-31T03:46:36.700Z,99.90
2019-03-31T03:49:06.686Z,99.90
2019-03-31T03:51:36.687Z,99.90
2019-03-31T03:54:06.716Z,99.90
2019-03-31T03:56:36.755Z,99.90
2019-03-31T03:59:06.715Z,99.90
2019-03-31T04:01:36.740Z,99.90
2019-03-31T04:04:06.745Z,99.90
2019-03-31T04:06:36.716Z,99.90
2019-03-31T04:09:07.748Z,99.90
2019-03-31T04:11:37.712Z,99.90
2019-03-31T04:14:07.674Z,99.90
2019-03-31T04:16:37.644Z,99.90
2019-03-31T04:19:08.570Z,99.90
2019-03-31T04:21:38.535Z,99.90
2019-03-31T04:24:08.498Z,99.90
2019-03-31T04:26:38.466Z,99.90
2019-03-31T04:29:08.421Z,99.90
2019-03-31T04:31:38.407Z,99.90
2019-03-31T04:34:09.438Z,99.90
2019-03-31T04:36:39.413Z,99.90
2019-03-31T04:39:09.359Z,99.90
2019-03-31T04:41:39.345Z,99.90
2019-03-31T04:44:09.291Z,99.90
2019-03-31T04:46:39.267Z,99.90
2019-03-31T04:49:09.220Z,99.90
2019-03-31T04:51:39.223Z,99.90
2019-03-31T04:54:09.184Z,99.90
2019-03-31T04:56:39.228Z,99.90
2019-03-31T04:59:09.183Z,99.90
2019-03-31T05:01:39.169Z,99.90
2019-03-31T05:04:09.227Z,99.90
2019-03-31T05:06:39.200Z,99.90
2019-03-31T05:09:09.157Z,99.90
2019-03-31T05:11:39.136Z,99.90
2019-03-31T05:14:09.090Z,99.90
2019-03-31T05:16:39.081Z,99.90
2019-03-31T05:19:09.032Z,99.90
2019-03-31T05:21:39.011Z,99.90
2019-03-31T05:24:08.963Z,99.90
2019-03-31T05:26:38.935Z,99.90
2019-03-31T05:29:08.883Z,99.90
2019-03-31T05:31:38.854Z,99.90
2019-03-31T05:34:19.096Z,99.90
2019-03-31T05:36:40.402Z,99.90
2019-03-31T05:39:10.360Z,99.90
2019-03-31T05:41:40.347Z,99.90
2019-03-31T05:44:10.304Z,99.90
2019-03-31T05:46:40.285Z,99.90
2019-03-31T05:49:10.352Z,99.90
2019-03-31T05:51:40.302Z,99.90
2019-03-31T05:54:10.261Z,99.90
2019-03-31T05:56:40.244Z,99.90
2019-03-31T05:59:10.192Z,99.90
2019-03-31T06:01:40.179Z,99.90
2019-03-31T06:04:10.137Z,99.90
2019-03-31T06:06:40.211Z,99.90
2019-03-31T06:09:10.173Z,99.90
2019-03-31T06:11:40.152Z,99.90
2019-03-31T06:14:10.099Z,99.90
2019-03-31T06:16:40.084Z,99.90
2019-03-31T06:19:10.030Z,99.90
2019-03-31T06:21:40.008Z,99.90
2019-03-31T06:24:10.008Z,99.90
2019-03-31T06:26:39.948Z,99.90
2019-03-31T06:29:09.909Z,99.90
2019-03-31T06:31:39.884Z,99.90
2019-03-31T06:34:09.863Z,99.90
2019-03-31T06:36:40.251Z,99.90
2019-03-31T06:39:10.312Z,99.90
2019-03-31T06:41:40.328Z,99.70
2019-03-31T06:44:10.327Z,99.90
2019-03-31T06:46:40.302Z,99.90
2019-03-31T06:49:10.518Z,99.90
2019-03-31T06:51:40.784Z,99.80
2019-03-31T06:54:10.844Z,99.80
2019-03-31T06:56:40.814Z,99.20
2019-03-31T06:59:10.751Z,99.20
2019-03-31T07:01:40.756Z,98.70
2019-03-31T07:04:10.712Z,98.60
2019-03-31T07:06:40.692Z,98.30
2019-03-31T07:09:10.671Z,98.40
2019-03-31T07:11:40.631Z,98.70
2019-03-31T07:14:10.624Z,97.90
2019-03-31T07:16:40.583Z,98.70
2019-03-31T07:19:10.569Z,97.80
2019-03-31T07:21:40.527Z,97.60
2019-03-31T07:24:10.561Z,98.30
2019-03-31T07:26:40.521Z,98.00
2019-03-31T07:29:10.506Z,97.80
2019-03-31T07:31:40.467Z,97.90
2019-03-31T07:34:11.414Z,97.60
2019-03-31T07:36:41.386Z,97.70
2019-03-31T07:39:11.511Z,97.80
2019-03-31T07:41:41.539Z,97.80
2019-03-31T07:44:15.164Z,97.20
2019-03-31T07:46:43.217Z,97.50
2019-03-31T07:49:13.204Z,97.30
2019-03-31T07:51:43.170Z,97.70
2019-03-31T07:54:13.245Z,98.60
2019-03-31T07:56:45.038Z,97.60
2019-03-31T07:59:15.017Z,97.40
2019-03-31T08:01:44.998Z,96.90
2019-03-31T08:04:15.002Z,96.00
2019-03-31T08:06:44.961Z,96.90
2019-03-31T08:09:14.942Z,96.80
2019-03-31T08:11:44.915Z,97.10
2019-03-31T08:14:14.905Z,96.50
2019-03-31T08:16:44.875Z,97.10
2019-03-31T08:19:14.872Z,97.40
2019-03-31T08:21:44.823Z,97.60
2019-03-31T08:24:14.803Z,96.90
2019-03-31T08:26:44.765Z,96.80
2019-03-31T08:29:14.748Z,97.40
2019-03-31T08:31:44.707Z,96.80
2019-03-31T08:34:14.691Z,97.10
2019-03-31T08:36:44.652Z,96.90
2019-03-31T08:39:14.646Z,96.80
2019-03-31T08:41:44.604Z,96.60
2019-03-31T08:44:14.587Z,97.20
2019-03-31T08:46:44.551Z,97.10
2019-03-31T08:49:14.535Z,96.80
2019-03-31T08:51:44.500Z,97.10
2019-03-31T08:54:14.482Z,97.60
2019-03-31T08:56:44.442Z,96.90
2019-03-31T08:59:14.423Z,96.70
2019-03-31T09:01:45.155Z,97.10
2019-03-31T09:04:15.140Z,97.20
2019-03-31T09:06:45.100Z,97.30
2019-03-31T09:09:15.082Z,96.70
2019-03-31T09:11:45.043Z,97.20
2019-03-31T09:14:15.023Z,97.60
2019-03-31T09:16:44.984Z,97.60
2019-03-31T09:19:15.078Z,97.60
2019-03-31T09:21:45.031Z,97.70
2019-03-31T09:24:15.006Z,98.00
2019-03-31T09:26:44.975Z,97.50
2019-03-31T09:29:14.947Z,97.00
2019-03-31T09:31:44.901Z,95.90
2019-03-31T09:34:14.879Z,96.80
2019-03-31T09:36:44.845Z,96.00
2019-03-31T09:39:14.832Z,96.00
2019-03-31T09:41:44.802Z,95.20
2019-03-31T09:44:14.892Z,95.70
2019-03-31T09:46:44.839Z,96.50
2019-03-31T09:49:14.822Z,96.00
2019-03-31T09:51:44.789Z,96.20
2019-03-31T09:54:14.768Z,96.40
2019-03-31T09:56:44.735Z,96.20
2019-03-31T09:59:14.716Z,97.00
2019-03-31T10:01:44.679Z,97.00
2019-03-31T10:04:14.650Z,96.40
2019-03-31T10:06:44.611Z,96.20
2019-03-31T10:09:14.596Z,96.50
2019-03-31T10:11:44.555Z,96.10
2019-03-31T10:14:14.535Z,96.20
2019-03-31T10:16:44.504Z,95.60
2019-03-31T10:19:14.483Z,95.90
2019-03-31T10:21:44.458Z,95.80
2019-03-31T10:24:14.423Z,95.90
2019-03-31T10:26:44.382Z,95.80
2019-03-31T10:29:14.355Z,95.60
2019-03-31T10:31:44.321Z,96.00
2019-03-31T10:34:14.377Z,94.50
2019-03-31T10:36:45.113Z,94.20
2019-03-31T10:39:15.211Z,94.20
2019-03-31T10:41:45.328Z,94.30
2019-03-31T10:44:15.479Z,94.60
2019-03-31T10:46:45.469Z,95.10
2019-03-31T10:49:15.540Z,95.40
2019-03-31T10:51:45.598Z,95.30
2019-03-31T10:54:15.574Z,94.60
2019-03-31T10:56:45.540Z,94.20
2019-03-31T10:59:16.486Z,96.00
2019-03-31T11:01:46.520Z,95.50
2019-03-31T11:04:16.505Z,94.10
2019-03-31T11:06:58.260Z,95.40
2019-03-31T11:09:18.116Z,94.50
2019-03-31T11:11:48.072Z,96.40
2019-03-31T11:14:18.055Z,94.70
2019-03-31T11:16:48.016Z,94.50
2019-03-31T11:19:17.995Z,94.20
2019-03-31T11:21:49.592Z,94.20
2019-03-31T11:24:19.580Z,94.40
2019-03-31T11:26:49.548Z,95.10
2019-03-31T11:29:19.531Z,94.40
2019-03-31T11:31:49.498Z,93.90
2019-03-31T11:34:19.847Z,93.90
2019-03-31T11:36:49.884Z,94.70
2019-03-31T11:39:19.876Z,94.10
2019-03-31T11:41:49.846Z,93.50
2019-03-31T11:44:19.835Z,93.50
2019-03-31T11:46:50.252Z,93.30
2019-03-31T11:49:21.025Z,94.30
2019-03-31T11:51:51.786Z,94.00
2019-03-31T11:54:21.794Z,93.30
2019-03-31T11:56:51.754Z,94.00
2019-03-31T11:59:22.330Z,94.60
2019-03-31T12:01:53.573Z,94.60
2019-03-31T12:04:24.316Z,92.20
2019-03-31T12:06:55.246Z,92.80
2019-03-31T12:09:25.842Z,92.80
2019-03-31T12:11:56.087Z,92.10
2019-03-31T12:14:26.104Z,93.10
2019-03-31T12:16:56.491Z,92.00
2019-03-31T12:19:27.409Z,92.50
2019-03-31T12:21:58.531Z,92.20
2019-03-31T12:24:29.012Z,92.10
2019-03-31T12:26:59.792Z,92.80
2019-03-31T12:29:29.815Z,91.90
2019-03-31T12:32:00.306Z,92.20
2019-03-31T12:34:30.390Z,92.00
2019-03-31T12:37:01.708Z,92.60
2019-03-31T12:39:33.833Z,92.20
2019-03-31T12:42:04.612Z,92.70
2019-03-31T12:44:36.310Z,92.10
2019-03-31T12:47:07.749Z,91.60
2019-03-31T12:49:38.364Z,91.70
2019-03-31T12:52:09.187Z,92.10
2019-03-31T12:54:39.997Z,92.40
2019-03-31T12:57:11.636Z,92.60
2019-03-31T12:59:43.266Z,92.70
2019-03-31T13:02:14.057Z,92.00
2019-03-31T13:04:44.779Z,92.60
2019-03-31T13:07:15.196Z,92.30
2019-03-31T13:09:45.867Z,92.60
2019-03-31T13:12:15.882Z,92.70
2019-03-31T13:14:45.862Z,92.00
2019-03-31T13:17:15.831Z,92.60
2019-03-31T13:19:45.812Z,92.50
2019-03-31T13:22:15.767Z,92.30
2019-03-31T13:24:45.755Z,93.20
2019-03-31T13:27:15.798Z,92.90
2019-03-31T13:29:45.794Z,94.80
2019-03-31T13:32:15.761Z,94.00
2019-03-31T13:34:45.761Z,93.40
2019-03-31T13:37:15.772Z,93.10
2019-03-31T13:39:46.844Z,93.70
2019-03-31T13:42:16.804Z,93.40
2019-03-31T13:44:46.955Z,92.80
2019-03-31T13:47:16.941Z,93.40
2019-03-31T13:49:46.907Z,92.70
2019-03-31T13:52:16.900Z,92.90
2019-03-31T13:54:46.844Z,93.60
2019-03-31T13:57:17.284Z,93.20
2019-03-31T13:59:47.464Z,94.30
2019-03-31T14:02:17.442Z,93.80
2019-03-31T14:04:51.870Z,93.70
2019-03-31T14:07:19.086Z,94.70
2019-03-31T14:09:49.047Z,94.10
2019-03-31T14:12:19.027Z,94.30
2019-03-31T14:14:48.990Z,94.00
2019-03-31T14:17:18.972Z,94.40
2019-03-31T14:19:48.922Z,95.10
2019-03-31T14:22:18.906Z,94.70
2019-03-31T14:24:49.073Z,94.80
2019-03-31T14:27:19.051Z,95.10
2019-03-31T14:29:49.006Z,95.10
2019-03-31T14:32:19.023Z,94.70
2019-03-31T14:34:48.983Z,95.30
2019-03-31T14:37:20.045Z,95.00
2019-03-31T14:39:50.007Z,95.00
2019-03-31T14:42:19.983Z,94.90
2019-03-31T14:44:49.938Z,94.50
2019-03-31T14:47:19.929Z,94.30
2019-03-31T14:49:49.886Z,94.30
2019-03-31T14:52:27.196Z,93.60
2019-03-31T14:54:51.487Z,93.90
2019-03-31T14:57:21.462Z,94.00
2019-03-31T14:59:51.483Z,94.40
2019-03-31T15:02:21.468Z,94.40
2019-03-31T15:04:51.423Z,93.30
2019-03-31T15:07:21.455Z,93.40
2019-03-31T15:09:51.434Z,93.60
2019-03-31T15:12:21.492Z,93.10
2019-03-31T15:14:51.475Z,93.30
2019-03-31T15:17:21.722Z,93.20
2019-03-31T15:19:51.682Z,93.00
2019-03-31T15:22:21.767Z,92.90
2019-03-31T15:24:51.731Z,93.40
2019-03-31T15:27:21.806Z,92.50
2019-03-31T15:29:51.787Z,93.40
2019-03-31T15:32:21.834Z,92.80
2019-03-31T15:34:51.828Z,92.90
2019-03-31T15:37:21.877Z,92.70
2019-03-31T15:39:51.850Z,92.80
2019-03-31T15:42:21.836Z,93.40
2019-03-31T15:44:51.791Z,92.70
2019-03-31T15:47:21.838Z,93.00
2019-03-31T15:49:51.793Z,92.70
2019-03-31T15:52:21.822Z,92.40
2019-03-31T15:54:51.763Z,91.90
2019-03-31T15:57:21.712Z,92.30
2019-03-31T15:59:53.003Z,92.20
2019-03-31T16:02:24.624Z,92.70
2019-03-31T16:04:55.669Z,93.00
2019-03-31T16:07:25.646Z,93.30
2019-03-31T16:09:55.600Z,92.80
2019-03-31T16:12:25.570Z,92.10
2019-03-31T16:14:55.527Z,92.50
2019-03-31T16:17:25.539Z,92.90
2019-03-31T16:19:55.497Z,92.40
2019-03-31T16:22:25.569Z,91.70
2019-03-31T16:24:59.851Z,92.10
2019-03-31T16:27:29.830Z,91.80
2019-03-31T16:29:59.786Z,91.40
2019-03-31T16:32:29.767Z,92.20
2019-03-31T16:34:59.724Z,91.60
2019-03-31T16:37:29.778Z,91.40
2019-03-31T16:39:59.764Z,91.60
2019-03-31T16:42:29.747Z,91.60
2019-03-31T16:44:59.700Z,92.00
2019-03-31T16:47:29.665Z,92.10
2019-03-31T16:49:59.627Z,92.40
2019-03-31T16:52:29.600Z,91.90
2019-03-31T16:54:59.550Z,91.90
2019-03-31T16:57:29.620Z,91.60
2019-03-31T16:59:59.636Z,91.70
2019-03-31T17:02:29.551Z,91.60
2019-03-31T17:04:59.493Z,92.40
2019-03-31T17:07:30.439Z,91.70
2019-03-31T17:10:00.548Z,91.70
2019-03-31T17:12:30.471Z,92.00
2019-03-31T17:15:00.417Z,92.00
2019-03-31T17:17:30.387Z,92.30
2019-03-31T17:20:00.514Z,93.20
2019-03-31T17:22:30.616Z,92.00
2019-03-31T17:25:00.550Z,92.30
2019-03-31T17:27:30.539Z,92.30
2019-03-31T17:30:00.484Z,93.70
2019-03-31T17:32:30.467Z,92.90
2019-03-31T17:35:00.408Z,92.90
2019-03-31T17:37:30.362Z,93.00
2019-03-31T17:40:06.489Z,93.10
2019-03-31T17:42:32.070Z,93.70
2019-03-31T17:45:02.042Z,93.90
2019-03-31T17:47:32.011Z,95.20
2019-03-31T17:50:01.960Z,95.30
2019-03-31T17:52:31.949Z,95.10
2019-03-31T17:55:01.899Z,95.50
2019-03-31T17:57:31.874Z,95.20
2019-03-31T18:00:01.830Z,94.90
2019-03-31T18:02:32.530Z,95.00
2019-03-31T18:05:02.497Z,95.00
2019-03-31T18:07:32.465Z,95.20
2019-03-31T18:10:02.410Z,95.50
2019-03-31T18:12:32.392Z,96.10
2019-03-31T18:15:02.402Z,95.60
2019-03-31T18:17:32.349Z,95.70
2019-03-31T18:20:02.466Z,95.80
2019-03-31T18:22:32.705Z,95.80
2019-03-31T18:25:02.661Z,95.80
2019-03-31T18:27:32.641Z,96.10
2019-03-31T18:30:02.752Z,96.20
2019-03-31T18:32:32.787Z,95.80
2019-03-31T18:35:02.740Z,96.40
2019-03-31T18:37:33.775Z,96.80
2019-03-31T18:40:05.263Z,96.60
2019-03-31T18:42:35.227Z,96.90
2019-03-31T18:45:08.342Z,96.90
2019-03-31T18:47:38.312Z,96.90
2019-03-31T18:50:08.913Z,97.20
2019-03-31T18:52:38.884Z,97.70
2019-03-31T18:55:23.091Z,97.60
2019-03-31T18:58:06.657Z,97.80
2019-03-31T19:00:54.485Z,97.70
2019-03-31T19:03:42.416Z,98.00
2019-03-31T19:06:17.435Z,97.70
2019-03-31T19:08:54.999Z,98.00
2019-03-31T19:11:26.594Z,98.50
2019-03-31T19:13:58.246Z,98.20
2019-03-31T19:16:36.212Z,98.80
2019-03-31T19:19:19.636Z,98.80
2019-03-31T19:21:51.219Z,98.60
2019-03-31T19:24:22.833Z,99.00
2019-03-31T19:27:12.468Z,98.60
2019-03-31T19:29:44.078Z,98.80
2019-03-31T19:32:24.583Z,98.80
2019-03-31T19:34:59.168Z,98.70
2019-03-31T19:37:30.835Z,99.10
2019-03-31T19:40:11.456Z,99.40
2019-03-31T19:42:54.937Z,98.70
2019-03-31T19:45:29.476Z,98.80
2019-03-31T19:48:04.138Z,98.70
2019-03-31T19:50:38.626Z,98.80
2019-03-31T19:53:26.419Z,98.90
2019-03-31T19:56:16.290Z,99.10
2019-03-31T19:59:04.571Z,99.20
2019-03-31T20:01:36.326Z,99.80
2019-03-31T20:04:13.686Z,99.70
2019-03-31T20:06:54.343Z,99.50
2019-03-31T20:09:42.155Z,99.70
2019-03-31T20:12:16.475Z,99.60
2019-03-31T20:14:51.040Z,99.90
2019-03-31T20:17:22.632Z,99.90
2019-03-31T20:20:09.111Z,99.90
2019-03-31T20:22:58.878Z,99.90
2019-03-31T20:25:46.670Z,99.90
2019-03-31T20:28:18.280Z,99.90
2019-03-31T20:30:49.867Z,99.90
2019-03-31T20:33:37.714Z,99.90
2019-03-31T20:36:21.455Z,99.90
2019-03-31T20:38:55.575Z,99.90
2019-03-31T20:41:29.244Z,99.90
2019-03-31T20:43:59.256Z,99.90
2019-03-31T20:46:29.199Z,99.90
2019-03-31T20:48:59.168Z,99.90
2019-03-31T20:51:29.115Z,99.90
2019-03-31T20:53:59.084Z,99.90
2019-03-31T20:56:29.069Z,99.90
2019-03-31T20:59:00.083Z,99.90
2019-03-31T21:01:30.042Z,99.90
2019-03-31T21:04:00.016Z,99.90
2019-03-31T21:06:29.955Z,99.90
2019-03-31T21:08:59.922Z,99.90
2019-03-31T21:11:29.870Z,99.90
2019-03-31T21:13:59.843Z,99.90
2019-03-31T21:16:29.791Z,99.90
2019-03-31T21:18:59.754Z,99.90
2019-03-31T21:21:29.695Z,99.90
2019-03-31T21:23:59.730Z,99.90
2019-03-31T21:26:29.684Z,99.90
2019-03-31T21:28:59.662Z,99.90
2019-03-31T21:31:29.603Z,99.90
2019-03-31T21:33:59.575Z,99.90
2019-03-31T21:36:29.528Z,99.90
2019-03-31T21:38:59.503Z,99.90
2019-03-31T21:41:29.447Z,99.90
2019-03-31T21:43:59.415Z,99.90
2019-03-31T21:46:29.362Z,99.90
2019-03-31T21:48:59.335Z,99.90
2019-03-31T21:51:29.278Z,99.90
2019-03-31T21:53:59.257Z,99.90
2019-03-31T21:56:29.204Z,99.90
2019-03-31T21:58:59.170Z,99.90
2019-03-31T22:01:29.115Z,99.90
2019-03-31T22:04:00.155Z,99.90
2019-03-31T22:06:31.165Z,99.90
2019-03-31T22:09:01.131Z,99.90
2019-03-31T22:11:32.674Z,99.90
2019-03-31T22:14:02.647Z,99.90
2019-03-31T22:16:32.588Z,99.90
2019-03-31T22:19:02.559Z,99.90
2019-03-31T22:21:32.502Z,99.90
2019-03-31T22:24:02.479Z,99.90
2019-03-31T22:26:32.500Z,99.90
2019-03-31T22:29:02.472Z,99.90
2019-03-31T22:31:32.413Z,99.90
2019-03-31T22:34:02.500Z,99.90
2019-03-31T22:36:32.683Z,99.90
2019-03-31T22:39:02.658Z,99.90
2019-03-31T22:41:34.080Z,99.90
2019-03-31T22:44:04.311Z,99.90
2019-03-31T22:46:34.259Z,99.90
2019-03-31T22:49:04.308Z,99.90
2019-03-31T22:51:34.238Z,99.90
2019-03-31T22:54:04.228Z,99.90
2019-03-31T22:56:34.170Z,99.90
2019-03-31T22:59:04.147Z,99.90
2019-03-31T23:01:34.110Z,99.90
2019-03-31T23:04:04.129Z,99.90
2019-03-31T23:06:34.097Z,99.90
2019-03-31T23:09:06.584Z,99.90
2019-03-31T23:11:36.561Z,99.90
2019-03-31T23:14:06.504Z,99.90
2019-03-31T23:16:36.538Z,99.90
2019-03-31T23:19:06.488Z,99.90
2019-03-31T23:21:36.460Z,99.90
2019-03-31T23:24:06.472Z,99.90
2019-03-31T23:26:36.456Z,99.90
2019-03-31T23:29:06.404Z,99.90
2019-03-31T23:31:36.375Z,99.90
2019-03-31T23:34:06.323Z,99.90
2019-03-31T23:36:36.290Z,99.90
2019-03-31T23:39:07.673Z,99.90
2019-03-31T23:41:37.638Z,99.90
2019-03-31T23:44:07.589Z,99.90
2019-03-31T23:46:37.564Z,99.90
2019-03-31T23:49:07.502Z,99.90
2019-03-31T23:51:37.476Z,99.90
2019-03-31T23:54:07.416Z,99.90
2019-03-31T23:56:37.394Z,99.90
2019-03-31T23:59:07.335Z,99.90
